Time;durP1;ratioP1;P1;durP2;ratioP2;P2;SDS_P1;SDS_P2;PMS_P1;PMS_P2;Temp;Humidity;BMP_temperature;BMP_pressure;BME280_temperature;BME280_humidity;BME280_pressure;Samples;Min_cycle;Max_cycle;Signal;HPM_P1;HPM_P2
2021/08/21 00:00:27;;;;;;;3.67;3.10;;;;;;;19.45;56.33;98208.56;8520624;27;20202;-87
2021/08/21 00:04:30;;;;;;;4.00;3.00;;;;;;;19.41;56.76;98206.31;8519756;27;20226;-86
2021/08/21 00:08:33;;;;;;;7.07;3.33;;;;;;;19.37;56.64;98220.63;8519842;27;20204;-86
2021/08/21 00:12:35;;;;;;;3.70;2.97;;;;;;;19.38;56.85;98217.03;8491805;27;20194;-86
2021/08/21 00:16:40;;;;;;;4.57;3.30;;;;;;;19.19;56.88;98214.97;8485964;28;20415;-86
2021/08/21 00:20:42;;;;;;;4.33;2.87;;;;;;;19.23;56.52;98213.78;8486413;28;20197;-86
2021/08/21 00:24:45;;;;;;;4.73;3.17;;;;;;;19.20;56.68;98222.75;8487126;28;20205;-88
2021/08/21 00:28:48;;;;;;;10.67;3.07;;;;;;;19.22;57.15;98220.84;8487694;28;20200;-90
2021/08/21 00:32:52;;;;;;;6.57;3.60;;;;;;;19.15;56.87;98222.25;8489063;28;20206;-89
2021/08/21 00:36:55;;;;;;;5.60;3.10;;;;;;;19.13;56.80;98214.50;8487283;28;20225;-87
2021/08/21 00:40:58;;;;;;;5.53;3.10;;;;;;;19.05;56.31;98208.97;8486136;28;20198;-88
2021/08/21 00:45:01;;;;;;;6.27;2.97;;;;;;;18.98;56.61;98214.81;8486062;28;20198;-88
2021/08/21 00:49:05;;;;;;;5.30;3.23;;;;;;;18.99;56.50;98206.00;8485476;28;20198;-87
2021/08/21 00:53:08;;;;;;;6.00;3.17;;;;;;;18.99;56.15;98214.69;8485689;28;20234;-88
2021/08/21 00:57:13;;;;;;;3.77;2.73;;;;;;;18.92;56.13;98200.34;8485461;28;20525;-87
2021/08/21 01:01:16;;;;;;;3.40;2.80;;;;;;;18.98;55.95;98206.94;8488814;27;20492;-87
2021/08/21 01:05:20;;;;;;;3.27;2.93;;;;;;;18.80;56.70;98202.13;8518803;27;20221;-88
2021/08/21 01:09:23;;;;;;;4.77;3.07;;;;;;;18.80;56.88;98206.50;8518933;27;20207;-88
2021/08/21 01:13:26;;;;;;;5.07;3.00;;;;;;;18.85;56.59;98200.00;8519420;27;20379;-87
2021/08/21 01:17:29;;;;;;;4.13;3.17;;;;;;;18.83;56.61;98201.91;8518578;27;20224;-87
2021/08/21 01:21:34;;;;;;;6.63;2.97;;;;;;;18.89;56.52;98201.44;8517687;27;20197;-87
2021/08/21 01:25:36;;;;;;;4.63;2.70;;;;;;;18.80;56.29;98203.88;8518076;27;20197;-87
2021/08/21 01:29:41;;;;;;;4.73;3.00;;;;;;;18.71;56.35;98200.97;8518053;27;20492;-87
2021/08/21 01:33:43;;;;;;;3.10;2.77;;;;;;;18.65;56.44;98190.94;8517956;27;20196;-87
2021/08/21 01:37:46;;;;;;;5.00;3.47;;;;;;;18.68;56.26;98201.22;8517695;27;20225;-87
2021/08/21 01:41:49;;;;;;;5.83;3.23;;;;;;;18.65;56.43;98195.34;8517742;27;20197;-90
2021/08/21 01:45:53;;;;;;;7.23;4.83;;;;;;;18.63;56.55;98198.09;8518157;27;20197;-89
2021/08/21 01:49:58;;;;;;;5.83;3.33;;;;;;;18.61;56.76;98204.41;8518334;27;20241;-91
2021/08/21 01:54:00;;;;;;;5.83;3.70;;;;;;;18.54;56.71;98201.38;8517921;27;20236;-89
2021/08/21 01:58:03;;;;;;;5.60;3.10;;;;;;;18.46;56.63;98204.56;8521520;28;20232;-90
2021/08/21 02:02:10;;;;;;;3.30;3.00;;;;;;;18.41;56.08;98198.84;8518287;28;20196;-91
2021/08/21 02:06:13;;;;;;;5.13;3.30;;;;;;;18.39;55.75;98203.34;8517818;27;20417;-90
2021/08/21 02:10:17;;;;;;;6.03;3.17;;;;;;;18.36;56.13;98199.16;8518041;28;20197;-90
2021/08/21 02:14:21;;;;;;;3.90;3.10;;;;;;;18.33;56.13;98201.16;8517794;28;20201;-90
2021/08/21 02:18:25;;;;;;;6.63;4.23;;;;;;;18.25;55.96;98199.09;8517750;28;20524;-90
2021/08/21 02:22:28;;;;;;;5.17;3.57;;;;;;;18.25;56.18;98195.63;8517633;28;20211;-90
2021/08/21 02:26:31;;;;;;;3.70;3.37;;;;;;;18.27;56.21;98191.94;8517993;28;20196;-89
2021/08/21 02:30:34;;;;;;;8.63;4.90;;;;;;;18.18;56.70;98189.97;8517815;28;20503;-91
2021/08/21 02:34:38;;;;;;;5.37;4.03;;;;;;;18.14;57.12;98193.78;8521607;27;20197;-91
2021/08/21 02:38:41;;;;;;;10.53;7.37;;;;;;;18.05;56.74;98192.66;8524286;27;20221;-91
2021/08/21 02:42:45;;;;;;;5.40;3.80;;;;;;;18.05;56.55;98187.44;8523945;27;20228;-92
2021/08/21 02:46:47;;;;;;;9.53;6.30;;;;;;;18.07;56.70;98180.28;8524163;27;20197;-90
2021/08/21 02:50:52;;;;;;;5.23;3.90;;;;;;;18.10;56.85;98185.28;8524072;27;20493;-89
2021/08/21 02:54:55;;;;;;;6.63;3.87;;;;;;;18.05;57.15;98181.31;8523661;27;20204;-90
2021/08/21 02:58:58;;;;;;;4.80;3.77;;;;;;;18.04;57.13;98177.88;8523295;27;20232;-89
2021/08/21 03:03:01;;;;;;;7.40;4.33;;;;;;;17.97;57.43;98180.13;8523206;27;20498;-89
2021/08/21 03:07:05;;;;;;;7.17;3.57;;;;;;;17.94;57.34;98177.69;8523389;27;20217;-89
2021/08/21 03:11:08;;;;;;;4.87;2.87;;;;;;;17.89;56.72;98182.41;8522979;27;20204;-91
2021/08/21 03:15:11;;;;;;;3.83;2.80;;;;;;;17.87;56.76;98191.34;8506818;27;20197;-93
2021/08/21 03:19:13;;;;;;;3.00;2.70;;;;;;;17.79;57.22;98184.81;8523325;27;20424;-92
2021/08/21 03:23:18;;;;;;;5.80;4.20;;;;;;;17.72;57.04;98180.13;8522645;27;20200;-90
2021/08/21 03:27:20;;;;;;;5.70;3.83;;;;;;;17.79;56.74;98176.13;8522602;27;20204;-91
2021/08/21 03:31:23;;;;;;;3.90;3.30;;;;;;;17.70;57.22;98176.78;8523321;27;20469;-91
2021/08/21 03:35:26;;;;;;;5.60;3.10;;;;;;;17.77;57.12;98184.09;8523305;27;20272;-92
2021/08/21 03:39:30;;;;;;;4.37;3.20;;;;;;;17.81;57.13;98176.88;8523084;27;20407;-91
2021/08/21 03:43:33;;;;;;;6.93;3.90;;;;;;;17.78;57.20;98177.06;8522459;27;20201;-91
2021/08/21 03:47:37;;;;;;;5.00;3.80;;;;;;;17.80;57.22;98172.59;8522745;27;20201;-90
2021/08/21 03:51:40;;;;;;;7.10;4.60;;;;;;;17.78;57.69;98187.56;8522420;27;20243;-91
2021/08/21 03:55:44;;;;;;;10.40;5.20;;;;;;;17.82;57.66;98182.94;8522626;27;20201;-91
2021/08/21 03:59:46;;;;;;;8.27;4.70;;;;;;;17.81;57.42;98189.97;8522597;27;20204;-91
2021/08/21 04:03:49;;;;;;;7.90;4.10;;;;;;;17.78;57.48;98185.78;8522323;27;20217;-91
2021/08/21 04:07:52;;;;;;;6.33;3.93;;;;;;;17.78;57.06;98182.31;8521673;27;20208;-91
2021/08/21 04:11:57;;;;;;;6.93;3.10;;;;;;;17.78;57.09;98188.41;8521253;27;20205;-91
2021/08/21 04:16:00;;;;;;;5.10;3.50;;;;;;;17.79;57.13;98191.84;8520970;27;20208;-91
2021/08/21 04:20:04;;;;;;;6.80;4.97;;;;;;;17.72;57.53;98204.53;8520872;27;20197;-92
2021/08/21 04:24:07;;;;;;;7.57;4.60;;;;;;;17.76;57.68;98202.53;8520642;27;20201;-91
2021/08/21 04:28:11;;;;;;;5.00;3.80;;;;;;;17.77;58.14;98207.69;8520431;27;20197;-91
2021/08/21 04:32:14;;;;;;;9.03;3.97;;;;;;;17.81;58.09;98199.63;8520098;27;20488;-91
2021/08/21 04:36:17;;;;;;;6.90;3.60;;;;;;;17.81;57.92;98208.31;8519450;27;20420;-90
2021/08/21 04:40:21;;;;;;;4.97;3.67;;;;;;;17.78;57.62;98203.25;8519614;27;20200;-90
2021/08/21 04:44:25;;;;;;;3.60;3.17;;;;;;;17.83;57.79;98201.16;8519787;27;20197;-90
2021/08/21 04:48:28;;;;;;;4.93;3.40;;;;;;;17.85;58.03;98211.56;8519422;27;20209;-90
2021/08/21 04:52:30;;;;;;;5.73;3.30;;;;;;;17.84;58.19;98215.09;8519070;27;20244;-90
2021/08/21 04:56:33;;;;;;;8.93;3.80;;;;;;;17.92;58.31;98216.28;8518635;27;20225;-90
2021/08/21 05:00:37;;;;;;;5.27;3.20;;;;;;;17.92;58.01;98215.44;8519558;27;20201;-91
2021/08/21 05:04:40;;;;;;;5.53;3.47;;;;;;;17.92;58.20;98224.13;8519489;27;20213;-92
2021/08/21 05:08:43;;;;;;;4.73;3.00;;;;;;;17.98;58.31;98233.34;8520163;27;20204;-92
2021/08/21 05:12:46;;;;;;;4.57;3.20;;;;;;;17.98;58.80;98225.50;8519883;27;20271;-92
2021/08/21 05:16:50;;;;;;;5.10;3.60;;;;;;;17.90;59.44;98225.19;8519093;27;20231;-92
2021/08/21 05:21:04;;;;;;;3.77;3.17;;;;;;;17.98;59.35;98221.06;8519397;27;20204;-92
2021/08/21 05:25:08;;;;;;;7.20;3.43;;;;;;;18.15;59.17;98229.53;8519154;27;20208;-94
2021/08/21 05:29:12;;;;;;;6.80;3.50;;;;;;;18.22;59.30;98233.41;8519635;27;20204;-94
2021/08/21 05:33:18;;;;;;;4.60;3.60;;;;;;;18.24;58.72;98234.13;8519944;27;20201;-94
2021/08/21 05:37:24;;;;;;;9.27;3.87;;;;;;;18.14;59.39;98230.47;8519128;27;20232;-94
2021/08/21 05:41:29;;;;;;;5.37;3.50;;;;;;;18.29;59.41;98221.50;8518725;27;20209;-92
2021/08/21 05:45:32;;;;;;;3.67;3.03;;;;;;;18.27;59.93;98225.19;8518581;27;20200;-91
2021/08/21 05:49:36;;;;;;;5.77;3.47;;;;;;;18.47;59.64;98224.59;8518268;27;20200;-91
2021/08/21 05:53:39;;;;;;;5.20;3.80;;;;;;;18.51;59.71;98228.66;8517465;27;20236;-90
2021/08/21 05:57:42;;;;;;;5.77;3.53;;;;;;;18.49;60.29;98237.59;8517995;28;20220;-90
2021/08/21 06:01:45;;;;;;;6.30;3.70;;;;;;;18.68;59.87;98235.31;8517794;28;20400;-90
2021/08/21 06:05:49;;;;;;;4.30;3.87;;;;;;;18.72;59.42;98246.41;8518782;27;20590;-91
2021/08/21 06:09:52;;;;;;;4.53;3.23;;;;;;;18.79;59.69;98247.66;8524542;27;20542;-87
2021/08/21 06:13:55;;;;;;;6.07;3.63;;;;;;;18.81;59.63;98247.53;8524058;27;20196;-88
2021/08/21 06:17:58;;;;;;;4.43;3.70;;;;;;;19.08;58.50;98247.31;8524232;27;20407;-88
2021/08/21 06:22:02;;;;;;;3.90;3.00;;;;;;;19.40;58.08;98251.91;8523875;27;20197;-88
2021/08/21 06:26:05;;;;;;;7.80;3.90;;;;;;;19.43;57.98;98246.41;8523762;27;20204;-88
2021/08/21 06:30:08;;;;;;;6.90;3.60;;;;;;;19.30;57.45;98238.63;8523653;27;20208;-88
2021/08/21 06:34:11;;;;;;;6.07;3.60;;;;;;;19.15;58.81;98245.88;8523839;27;20507;-90
2021/08/21 06:38:15;;;;;;;5.33;3.83;;;;;;;19.65;57.49;98248.25;8523615;27;20225;-88
2021/08/21 06:42:18;;;;;;;3.50;3.10;;;;;;;19.86;57.75;98251.03;8523709;27;20201;-89
2021/08/21 06:46:21;;;;;;;5.27;4.10;;;;;;;20.20;56.57;98251.00;8523460;27;20208;-88
2021/08/21 06:50:24;;;;;;;5.90;3.50;;;;;;;20.45;56.04;98255.16;8523365;27;20505;-89
2021/08/21 06:54:28;;;;;;;3.67;3.10;;;;;;;20.30;56.44;98254.56;8522970;27;20234;-89
2021/08/21 06:58:31;;;;;;;7.43;3.47;;;;;;;20.63;56.18;98253.69;8522837;27;20225;-89
2021/08/21 07:02:33;;;;;;;5.17;3.60;;;;;;;20.41;55.84;98264.22;8522433;27;20197;-87
2021/08/21 07:06:36;;;;;;;4.00;3.40;;;;;;;20.39;56.44;98263.50;8522302;27;20435;-87
2021/08/21 07:10:41;;;;;;;5.00;3.93;;;;;;;20.42;55.83;98260.66;8522611;27;20504;-87
2021/08/21 07:14:44;;;;;;;5.47;3.90;;;;;;;20.37;55.91;98258.41;8522821;27;20198;-88
2021/08/21 07:18:47;;;;;;;7.87;3.93;;;;;;;20.57;56.63;98263.84;8521550;27;20530;-87
2021/08/21 07:22:50;;;;;;;3.87;3.40;;;;;;;20.76;55.28;98261.41;8522133;27;20208;-87
2021/08/21 07:26:54;;;;;;;6.00;3.30;;;;;;;20.70;54.91;98262.75;8521860;27;20206;-87
2021/08/21 07:30:57;;;;;;;3.77;3.33;;;;;;;20.63;55.37;98258.94;8521772;27;20208;-87
2021/08/21 07:35:00;;;;;;;12.00;3.90;;;;;;;20.73;55.77;98268.72;8521731;27;20196;-87
2021/08/21 07:39:03;;;;;;;3.73;3.40;;;;;;;21.45;54.34;98273.31;8521594;27;20232;-87
2021/08/21 07:43:07;;;;;;;15.23;3.73;;;;;;;21.73;54.20;98263.91;8521468;27;20233;-87
2021/08/21 07:47:10;;;;;;;4.50;2.93;;;;;;;21.80;54.97;98264.22;8520934;27;20203;-86
2021/08/21 07:51:13;;;;;;;5.73;3.47;;;;;;;21.69;54.58;98261.69;8520900;27;20251;-84
2021/08/21 07:55:16;;;;;;;6.63;3.47;;;;;;;21.95;53.67;98269.97;8519952;27;20201;-85
2021/08/21 07:59:20;;;;;;;7.37;3.13;;;;;;;22.01;53.95;98269.47;8519469;27;20221;-88
2021/08/21 08:03:23;;;;;;;6.30;3.07;;;;;;;21.99;54.27;98271.38;8519215;27;20199;-87
2021/08/21 08:07:25;;;;;;;5.13;3.17;;;;;;;21.93;54.35;98264.00;8519234;27;20193;-87
2021/08/21 08:11:28;;;;;;;5.70;3.20;;;;;;;21.92;54.26;98263.16;8518516;27;20199;-87
2021/08/21 08:15:32;;;;;;;4.60;3.23;;;;;;;22.57;52.92;98262.81;8518905;27;20189;-87
2021/08/21 08:19:37;;;;;;;5.63;3.50;;;;;;;23.28;50.63;98264.38;8518688;27;20227;-87
2021/08/21 08:23:40;;;;;;;7.37;3.33;;;;;;;22.80;52.35;98268.69;8518188;27;20203;-87
2021/08/21 08:27:45;;;;;;;6.33;2.77;;;;;;;22.80;52.20;98266.88;8518489;27;20197;-87
2021/08/21 08:31:49;;;;;;;9.13;3.27;;;;;;;22.92;52.22;98256.16;8517851;27;20200;-86
2021/08/21 08:35:52;;;;;;;6.23;3.00;;;;;;;23.11;51.82;98258.00;8518290;27;20193;-88
2021/08/21 08:39:54;;;;;;;8.57;3.40;;;;;;;23.07;51.90;98268.00;8518168;27;20213;-87
2021/08/21 08:43:58;;;;;;;11.10;3.97;;;;;;;23.45;51.00;98266.31;8516425;27;20193;-87
2021/08/21 08:48:03;;;;;;;7.43;3.37;;;;;;;24.34;49.11;98255.25;8518332;27;20216;-86
2021/08/21 08:52:07;;;;;;;6.27;3.20;;;;;;;24.60;47.88;98259.88;8517941;27;20232;-85
2021/08/21 08:56:10;;;;;;;6.30;3.00;;;;;;;24.92;47.37;98263.81;8518053;27;20192;-83
2021/08/21 09:00:14;;;;;;;6.03;2.93;;;;;;;25.35;46.41;98265.69;8517585;27;20217;-84
2021/08/21 09:04:20;;;;;;;4.67;2.93;;;;;;;25.45;46.29;98270.06;8517027;27;20228;-84
2021/08/21 09:08:26;;;;;;;5.60;3.10;;;;;;;25.36;44.89;98269.19;8517999;27;20196;-84
2021/08/21 09:12:29;;;;;;;5.53;3.17;;;;;;;25.74;45.22;98264.44;8514629;27;20198;-84
2021/08/21 09:16:31;;;;;;;3.60;2.80;;;;;;;25.71;43.05;98260.28;8515750;27;20201;-84
2021/08/21 09:20:51;;;;;;;2.97;2.50;;;;;;;25.68;42.26;98263.28;8517189;27;20221;-84
2021/08/21 09:24:54;;;;;;;3.40;2.83;;;;;;;25.50;43.25;98265.13;8518216;27;20397;-85
2021/08/21 09:28:59;;;;;;;3.70;2.90;;;;;;;25.81;41.53;98259.34;8518483;27;20208;-85
2021/08/21 09:33:02;;;;;;;4.73;3.10;;;;;;;25.48;42.26;98256.50;8518276;27;20403;-85
2021/08/21 09:37:08;;;;;;;4.33;3.43;;;;;;;25.39;42.92;98258.25;8517648;27;20206;-86
2021/08/21 09:41:11;;;;;;;5.03;3.80;;;;;;;25.48;43.33;98254.69;8517600;27;20229;-84
2021/08/21 09:45:14;;;;;;;5.53;2.93;;;;;;;25.85;43.38;98247.44;8517526;27;20212;-85
2021/08/21 09:49:17;;;;;;;5.37;3.07;;;;;;;26.21;43.08;98239.31;8517429;27;20503;-84
2021/08/21 09:53:36;;;;;;;5.77;3.00;;;;;;;26.26;42.52;98231.72;8517241;27;20234;-85
2021/08/21 09:57:40;;;;;;;6.13;3.80;;;;;;;26.27;41.54;98236.00;8517514;28;20521;-85
2021/08/21 10:01:45;;;;;;;5.47;3.47;;;;;;;26.44;41.48;98234.22;8517156;28;20225;-85
2021/08/21 10:05:48;;;;;;;4.83;3.43;;;;;;;26.41;42.11;98237.22;8517143;27;20217;-87
2021/08/21 10:09:53;;;;;;;4.90;4.00;;;;;;;26.25;41.13;98225.56;8517068;28;20275;-87
2021/08/21 10:13:57;;;;;;;8.17;3.90;;;;;;;26.70;39.09;98234.97;8517179;28;20202;-86
2021/08/21 10:18:00;;;;;;;8.77;3.77;;;;;;;27.01;40.07;98228.19;8516695;28;20198;-87
2021/08/21 10:22:04;;;;;;;4.33;3.30;;;;;;;27.18;39.58;98235.16;8516146;28;20190;-87
2021/08/21 10:26:17;;;;;;;4.80;3.70;;;;;;;27.50;38.92;98231.66;8516214;28;20385;-86
2021/08/21 10:30:23;;;;;;;7.37;3.70;;;;;;;27.54;37.84;98228.66;8514609;28;20195;-87
2021/08/21 10:34:28;;;;;;;5.53;3.70;;;;;;;27.75;37.94;98220.13;8516039;28;20496;-89
2021/08/21 10:38:36;;;;;;;4.90;3.77;;;;;;;27.63;38.36;98220.50;8515769;28;20437;-88
2021/08/21 10:42:52;;;;;;;6.27;3.60;;;;;;;27.52;38.23;98212.06;8516344;28;20484;-87
2021/08/21 10:46:56;;;;;;;6.53;3.77;;;;;;;27.04;39.45;98218.06;8513282;28;20205;-87
2021/08/21 10:50:58;;;;;;;5.73;3.70;;;;;;;27.37;38.96;98219.88;8515475;28;20191;-88
2021/08/21 10:55:12;;;;;;;5.17;3.57;;;;;;;28.08;38.09;98208.38;8518560;27;20191;-89
2021/08/21 10:59:39;;;;;;;4.83;3.57;;;;;;;28.43;34.92;98216.00;8519281;27;20533;-86
2021/08/21 11:03:49;;;;;;;3.33;3.03;;;;;;;28.59;36.37;98204.44;8519647;27;20200;-87
2021/08/21 11:08:02;;;;;;;5.10;3.90;;;;;;;28.37;35.18;98206.03;8521802;27;20284;-88
2021/08/21 11:12:07;;;;;;;3.87;3.50;;;;;;;28.42;35.33;98209.84;8520451;27;20218;-88
2021/08/21 11:16:12;;;;;;;5.57;3.20;;;;;;;28.80;35.40;98201.13;8521445;27;20187;-88
2021/08/21 11:20:26;;;;;;;5.90;3.23;;;;;;;28.95;33.98;98198.50;8521228;27;20277;-88
2021/08/21 11:24:30;;;;;;;3.10;2.73;;;;;;;29.38;34.34;98201.47;8518560;27;20192;-87
2021/08/21 11:28:32;;;;;;;3.47;3.10;;;;;;;29.19;34.52;98200.16;8520894;27;20192;-88
2021/08/21 11:32:41;;;;;;;6.37;3.23;;;;;;;29.04;33.45;98192.91;8520870;27;20192;-89
2021/08/21 11:36:44;;;;;;;4.87;3.60;;;;;;;28.73;34.01;98184.19;8518358;27;20513;-86
2021/08/21 11:40:50;;;;;;;6.23;3.50;;;;;;;29.21;34.04;98174.97;8520578;27;20216;-87
2021/08/21 11:44:54;;;;;;;7.40;3.73;;;;;;;29.28;33.90;98176.91;8521188;27;20190;-88
2021/08/21 11:49:08;;;;;;;6.97;3.50;;;;;;;28.63;34.78;98179.09;8523908;27;20289;-88
2021/08/21 11:53:19;;;;;;;8.13;4.07;;;;;;;28.73;34.98;98168.19;8519300;27;20341;-88
2021/08/21 11:57:22;;;;;;;4.33;3.93;;;;;;;28.97;36.40;98168.00;8517887;27;20197;-89
2021/08/21 12:01:29;;;;;;;5.60;4.10;;;;;;;28.61;34.75;98162.47;8519468;27;20243;-88
2021/08/21 12:05:36;;;;;;;6.37;3.70;;;;;;;28.95;34.83;98167.34;8500547;27;20217;-88
2021/08/21 12:09:39;;;;;;;4.80;3.60;;;;;;;29.49;33.86;98155.66;8519981;27;20208;-89
2021/08/21 12:13:42;;;;;;;4.80;3.20;;;;;;;29.77;34.37;98141.69;8519534;27;20383;-86
2021/08/21 12:17:45;;;;;;;9.73;4.40;;;;;;;29.39;34.69;98150.59;8519260;27;20220;-86
2021/08/21 12:21:49;;;;;;;4.93;4.27;;;;;;;29.31;33.46;98152.53;8516296;27;20231;-85
2021/08/21 12:25:59;;;;;;;4.03;3.63;;;;;;;29.67;33.84;98146.47;8518630;27;20395;-85
2021/08/21 12:30:07;;;;;;;4.03;3.60;;;;;;;30.02;34.72;98135.00;8518256;27;20205;-86
2021/08/21 12:34:16;;;;;;;4.13;3.17;;;;;;;29.89;34.09;98139.34;8518450;27;20192;-85
2021/08/21 12:38:20;;;;;;;5.10;3.53;;;;;;;29.67;34.52;98133.94;8518447;27;20200;-85
2021/08/21 12:42:23;;;;;;;6.10;3.37;;;;;;;29.69;34.21;98129.25;8517740;27;20213;-86
2021/08/21 12:46:26;;;;;;;6.43;3.73;;;;;;;29.58;33.62;98133.19;8517780;27;20265;-83
2021/08/21 12:50:29;;;;;;;6.40;3.67;;;;;;;29.11;33.98;98134.38;8517643;27;20492;-85
2021/08/21 12:54:35;;;;;;;3.60;3.30;;;;;;;29.22;34.14;98131.28;8517547;27;20567;-82
2021/08/21 12:58:39;;;;;;;8.33;3.30;;;;;;;29.30;34.63;98130.38;8517673;27;20197;-80
2021/08/21 13:02:43;;;;;;;7.90;3.20;;;;;;;29.22;33.83;98125.13;8517401;27;20221;-84
2021/08/21 13:06:59;;;;;;;5.37;3.23;;;;;;;29.40;33.31;98125.59;8516791;27;20531;-80
2021/08/21 13:11:04;;;;;;;3.83;3.20;;;;;;;28.96;33.64;98112.19;8514505;27;20193;-82
2021/08/21 13:15:08;;;;;;;3.60;3.00;;;;;;;28.47;34.58;98116.09;8516640;27;20194;-83
2021/08/21 13:19:10;;;;;;;3.97;3.00;;;;;;;27.95;35.53;98114.97;8515515;27;20521;-84
2021/08/21 13:23:13;;;;;;;3.40;3.10;;;;;;;28.77;35.09;98109.06;8514826;27;20208;-84
2021/08/21 13:27:17;;;;;;;7.07;3.20;;;;;;;28.17;35.90;98099.19;8516322;27;20399;-82
2021/08/21 13:31:23;;;;;;;6.40;3.40;;;;;;;27.68;36.48;98109.09;8516135;27;20322;-84
2021/08/21 13:35:26;;;;;;;5.70;3.40;;;;;;;27.32;37.18;98106.06;8515555;27;20203;-83
2021/08/21 13:39:30;;;;;;;4.27;3.47;;;;;;;27.45;37.12;98097.53;8515624;27;20195;-84
2021/08/21 13:43:34;;;;;;;4.47;3.33;;;;;;;27.45;36.76;98095.69;8515865;27;20190;-86
2021/08/21 13:47:37;;;;;;;5.80;3.80;;;;;;;27.56;37.34;98096.34;8515635;27;20219;-84
2021/08/21 13:51:40;;;;;;;6.53;3.30;;;;;;;28.47;35.87;98089.47;8515975;27;20228;-84
2021/08/21 13:55:42;;;;;;;4.13;3.37;;;;;;;28.49;34.46;98089.31;8515573;27;20229;-84
2021/08/21 13:59:50;;;;;;;5.20;3.30;;;;;;;28.00;36.42;98085.97;8516089;28;20230;-84
2021/08/21 14:03:53;;;;;;;6.23;3.47;;;;;;;28.74;34.94;98071.28;8513450;27;20268;-83
2021/08/21 14:07:56;;;;;;;5.03;3.10;;;;;;;28.35;36.45;98069.59;8515541;28;20492;-84
2021/08/21 14:11:59;;;;;;;3.37;3.07;;;;;;;28.35;36.66;98067.78;8515188;28;20214;-84
2021/08/21 14:16:03;;;;;;;6.10;3.67;;;;;;;28.26;36.09;98071.50;8515369;28;20192;-83
2021/08/21 14:20:08;;;;;;;4.10;3.23;;;;;;;28.04;36.61;98067.81;8515241;28;20227;-84
2021/08/21 14:24:11;;;;;;;4.13;3.23;;;;;;;28.75;35.54;98054.28;8515226;28;20202;-84
2021/08/21 14:28:14;;;;;;;6.53;3.60;;;;;;;28.88;36.12;98054.47;8517140;27;20190;-84
2021/08/21 14:32:18;;;;;;;3.73;3.20;;;;;;;28.79;34.07;98050.25;8521731;27;20202;-85
2021/08/21 14:36:23;;;;;;;3.60;3.13;;;;;;;28.40;34.88;98052.06;8521718;27;20515;-82
2021/08/21 14:40:26;;;;;;;3.33;2.90;;;;;;;28.05;36.27;98045.53;8521482;27;20393;-83
2021/08/21 14:44:29;;;;;;;3.87;3.47;;;;;;;28.06;35.08;98050.69;8520980;27;20192;-83
2021/08/21 14:48:33;;;;;;;5.03;3.13;;;;;;;27.74;35.70;98051.69;8522082;27;20324;-83
2021/08/21 14:52:38;;;;;;;4.17;2.93;;;;;;;28.08;35.47;98047.81;8522606;27;20561;-82
2021/08/21 14:56:41;;;;;;;3.40;3.10;;;;;;;28.43;35.13;98040.25;8522038;27;20336;-84
2021/08/21 15:00:44;;;;;;;6.23;3.10;;;;;;;28.56;35.08;98040.47;8521589;27;20238;-84
2021/08/21 15:04:48;;;;;;;4.70;3.27;;;;;;;28.61;34.96;98037.25;8521548;27;20218;-82
2021/08/21 15:08:51;;;;;;;4.57;3.07;;;;;;;28.37;35.89;98044.44;8521550;27;20204;-84
2021/08/21 15:12:54;;;;;;;3.70;3.13;;;;;;;27.82;36.25;98043.66;8521489;27;20383;-84
2021/08/21 15:16:57;;;;;;;6.00;4.60;;;;;;;27.90;36.41;98037.47;8521444;27;20200;-84
2021/08/21 15:21:01;;;;;;;9.10;3.50;;;;;;;27.74;37.35;98034.88;8520971;27;20515;-84
2021/08/21 15:25:05;;;;;;;3.77;3.30;;;;;;;28.08;36.94;98039.84;8521186;27;20389;-84
2021/08/21 15:29:08;;;;;;;4.07;3.50;;;;;;;28.08;35.09;98037.19;8520209;27;20504;-85
2021/08/21 15:33:13;;;;;;;3.57;3.03;;;;;;;28.16;36.18;98034.47;8519927;27;20200;-85
2021/08/21 15:37:18;;;;;;;4.43;3.53;;;;;;;28.12;36.45;98025.19;8519630;27;20191;-85
2021/08/21 15:41:21;;;;;;;4.27;2.80;;;;;;;28.00;35.81;98021.28;8519395;27;20219;-85
2021/08/21 15:45:24;;;;;;;3.10;2.80;;;;;;;28.01;35.75;98021.09;8517082;27;20418;-84
2021/08/21 15:49:27;;;;;;;4.63;3.60;;;;;;;27.83;36.02;98013.38;8519362;27;20324;-85
2021/08/21 15:53:33;;;;;;;4.17;3.33;;;;;;;27.80;36.30;98015.59;8519269;27;20233;-84
2021/08/21 15:57:36;;;;;;;5.63;4.13;;;;;;;27.55;36.35;98013.06;8516770;27;20232;-84
2021/08/21 16:01:39;;;;;;;5.73;3.57;;;;;;;27.55;36.21;98013.06;8518665;27;20222;-83
2021/08/21 16:05:42;;;;;;;4.70;4.30;;;;;;;27.54;36.72;98002.59;8518320;27;20209;-84
2021/08/21 16:09:48;;;;;;;3.97;3.40;;;;;;;27.52;36.74;97999.28;8518728;27;20190;-84
2021/08/21 16:13:50;;;;;;;3.97;3.20;;;;;;;27.43;36.61;97996.66;8516158;27;20202;-83
2021/08/21 16:17:53;;;;;;;6.30;3.00;;;;;;;27.37;36.73;97994.69;8518607;27;20191;-83
2021/08/21 16:21:57;;;;;;;4.23;3.50;;;;;;;27.35;37.24;97996.72;8518030;27;20245;-84
2021/08/21 16:26:04;;;;;;;5.27;3.10;;;;;;;27.29;37.27;97995.56;8517916;27;20390;-84
2021/08/21 16:30:07;;;;;;;4.13;3.33;;;;;;;27.02;36.64;97993.34;8518082;27;20559;-83
2021/08/21 16:34:10;;;;;;;5.30;4.20;;;;;;;27.13;37.29;97989.47;8517938;27;20197;-84
2021/08/21 16:38:17;;;;;;;7.43;3.70;;;;;;;26.99;37.76;97991.84;8518052;27;20478;-84
2021/08/21 16:42:26;;;;;;;5.07;3.17;;;;;;;27.02;38.22;97991.50;8515474;27;20227;-83
2021/08/21 16:46:29;;;;;;;6.57;3.87;;;;;;;26.88;38.22;97987.75;8517736;27;20210;-84
2021/08/21 16:50:32;;;;;;;6.30;3.60;;;;;;;26.90;38.34;97987.56;8517221;27;20196;-84
2021/08/21 16:54:35;;;;;;;7.83;3.80;;;;;;;26.89;38.36;97983.25;8516438;27;20219;-83
2021/08/21 16:58:39;;;;;;;4.47;3.80;;;;;;;26.84;38.62;97982.94;8517209;27;20362;-83
2021/08/21 17:02:42;;;;;;;6.43;3.87;;;;;;;26.80;39.30;97984.28;8516546;27;20425;-83
2021/08/21 17:06:45;;;;;;;9.30;3.77;;;;;;;26.69;39.37;97977.50;8514524;27;20379;-83
2021/08/21 17:10:47;;;;;;;5.07;3.47;;;;;;;26.56;39.53;97977.16;8517420;27;20227;-83
2021/08/21 17:14:52;;;;;;;5.13;3.87;;;;;;;26.57;39.56;97971.69;8517775;27;20206;-83
2021/08/21 17:18:55;;;;;;;5.43;4.93;;;;;;;26.53;40.00;97973.84;8516601;27;20205;-83
2021/08/21 17:22:58;;;;;;;5.83;5.23;;;;;;;26.48;39.84;97973.56;8517577;27;20222;-82
2021/08/21 17:27:00;;;;;;;9.23;4.70;;;;;;;26.32;40.14;97971.75;8516802;27;20338;-83
2021/08/21 17:31:06;;;;;;;6.23;4.33;;;;;;;26.21;40.45;97971.25;8513811;27;20208;-83
2021/08/21 17:35:10;;;;;;;5.37;3.47;;;;;;;26.28;40.30;97966.94;8514462;27;20198;-85
2021/08/21 17:39:13;;;;;;;4.93;4.13;;;;;;;26.19;40.41;97978.56;8515324;27;20191;-84
2021/08/21 17:43:16;;;;;;;5.73;3.90;;;;;;;26.14;40.62;97976.38;8514849;27;20218;-82
2021/08/21 17:47:20;;;;;;;4.87;3.70;;;;;;;26.06;40.99;97974.56;8516292;27;20263;-84
2021/08/21 17:51:23;;;;;;;3.73;3.37;;;;;;;26.09;41.53;97978.72;8516787;27;20409;-85
2021/08/21 17:55:26;;;;;;;5.57;3.80;;;;;;;25.98;41.85;97976.41;8516445;27;20215;-84
2021/08/21 17:59:29;;;;;;;8.17;4.50;;;;;;;25.89;42.56;97979.03;8516473;27;20511;-86
2021/08/21 18:03:33;;;;;;;7.27;5.97;;;;;;;25.87;44.11;97981.00;8513323;27;20531;-85
2021/08/21 18:07:37;;;;;;;15.10;9.73;;;;;;;25.79;44.41;97977.53;8515935;28;20395;-86
2021/08/21 18:11:40;;;;;;;9.57;7.97;;;;;;;25.65;45.02;97971.06;8515988;28;20207;-85
2021/08/21 18:15:42;;;;;;;7.87;6.17;;;;;;;25.62;45.13;97987.28;8517446;28;20242;-88
2021/08/21 18:19:47;;;;;;;8.57;4.90;;;;;;;25.52;45.26;97982.94;8517613;28;20197;-87
2021/08/21 18:23:50;;;;;;;5.43;4.37;;;;;;;25.41;45.50;97983.25;8516558;28;20231;-87
2021/08/21 18:27:53;;;;;;;4.40;4.00;;;;;;;25.36;46.47;97981.09;8517139;28;20203;-86
2021/08/21 18:31:56;;;;;;;5.43;4.73;;;;;;;25.22;46.86;97980.84;8516595;28;20216;-87
2021/08/21 18:36:01;;;;;;;7.23;4.53;;;;;;;25.16;47.02;97982.31;8516409;28;20202;-89
2021/08/21 18:40:05;;;;;;;6.43;4.93;;;;;;;25.08;47.71;97977.00;8515883;28;20219;-86
2021/08/21 18:44:07;;;;;;;13.60;4.87;;;;;;;25.02;47.75;97974.97;8511920;28;20226;-87
2021/08/21 18:48:10;;;;;;;8.57;4.20;;;;;;;24.84;48.31;97962.66;8516866;28;20189;-88
2021/08/21 18:52:17;;;;;;;7.67;4.50;;;;;;;24.86;48.44;97981.03;8513530;28;20238;-84
2021/08/21 18:56:20;;;;;;;9.20;4.53;;;;;;;24.83;48.76;97989.28;8514725;28;20189;-85
2021/08/21 19:00:23;;;;;;;6.88;6.18;;;;;;;25.26;48.07;97987.50;8511074;28;20419;-85
2021/08/21 19:04:26;;;;;;;6.70;5.40;;;;;;;24.85;49.28;97992.63;8515043;28;20251;-84
2021/08/21 19:08:32;;;;;;;9.43;5.10;;;;;;;24.81;49.37;97992.13;8515276;28;20190;-85